Terminal Aerodrome Forecast
Issued by NWS

Current Version | Previous Version | Graphics & Text | Print | Product List | Glossary On
Versions: 1 2 3 4 5 6 7 8 9 10 11 12 13 14 15 16 17 18 19 20 21 22 23 24 25
000
FTUS41 KILN 031133
TAFLCK
TAF
KLCK 031133Z 0312/0412 01010KT P6SM VCSH BKN060
      TEMPO 0312/0313 -TSRA BKN035CB
     FM031400 22012KT P6SM BKN040
     FM031900 24012G22KT P6SM VCTS BKN040CB
     FM032200 28012KT P6SM BKN040
     FM040200 32006KT P6SM SCT050
     FM041000 VRB03KT P6SM SKC=

USA.gov is the U.S. government's official web portal to all federal, state and local government web resources and services.